Flight Track Log - Related Links

Times and Time Zones

All times are in EDT time to prevent confusion due to time zone crossing. See the N63981 flight status page for this flight to view local times or setup timezone preferences in your user account.

Time Position Orientation Groundspeed Altitude Reporting Facility
EDT Latitude Longitude Course Direction KTS MPH feet Rate Location/Type
Sun 06:36:00 PM -19.9020 -160.1382 127° Southeast  Level FlightAware Approximate
Sun 06:37:00 PM -19.8845 -160.1162 50° Northeast  Level FlightAware Approximate
Sun 06:38:00 PM -19.8669 -160.0942 50° Northeast  Level FlightAware Approximate
Sun 06:39:00 PM -19.8494 -160.0722 50° Northeast  Level FlightAware Approximate
Sun 06:40:00 PM -19.8319 -160.0502 50° Northeast  Level FlightAware Approximate
Sun 06:41:00 PM -19.8143 -160.0282 50° Northeast  Level FlightAware Approximate
Sun 06:41:20 PM 40.3019 -76.8761 50° Northeast 128 147 6,500  Level Cleveland Center
Sun 06:42:00 PM -19.7968 -160.0063 50° Northeast  Level FlightAware Approximate
Sun 06:42:22 PM 40.2961 -76.9325 262° West 129 148 6,500  Level Cleveland Center
Sun 06:43:00 PM -19.7792 -159.9843 50° Northeast  Level FlightAware Approximate
Sun 06:43:24 PM 40.2919 -76.9786 263° West 129 148 6,500  Level Cleveland Center
Sun 06:44:00 PM -19.7617 -159.9623 50° Northeast  Level FlightAware Approximate
Sun 06:44:26 PM 40.2867 -77.0261 262° West 130 150 6,500  Level Cleveland Center
Sun 06:45:00 PM -19.7441 -159.9404 50° Northeast  Level FlightAware Approximate
Sun 06:45:28 PM 40.2803 -77.0736 260° West 131 151 6,500  Level Cleveland Center
Sun 06:46:00 PM -19.7265 -159.9184 50° Northeast  Level FlightAware Approximate
Sun 06:46:30 PM 40.2747 -77.1208 261° West 132 152 6,500  Level Cleveland Center
Sun 06:47:32 PM 40.2686 -77.1683 260° West 132 152 6,500  Level Cleveland Center
Sun 06:48:34 PM 40.2639 -77.2169 263° West 133 153 6,500  Level Cleveland Center
Sun 06:49:36 PM 40.2567 -77.2742 261° West 133 153 6,500  Level Cleveland Center
Sun 06:50:38 PM 40.2514 -77.3208 262° West 131 151 6,500  Level Cleveland Center
Sun 06:51:40 PM 40.2469 -77.3658 263° West 127 146 6,500  Level Cleveland Center
Sun 06:52:42 PM 40.2414 -77.4108 261° West 125 144 6,500  Level Cleveland Center
Sun 06:53:45 PM 40.2322 -77.4561 255° West 127 146 6,500  Level Cleveland Center

Login

Don't have an account? Register now (free) for customized features, flight alerts, and more!